EZY65J EDDH-EHAM
Flight info
| Callsign | EZY65J |
|---|---|
| Flight time | N/A |
| Altitude | 30000 |
| Route | WSN5C/05 WSN N125 BLUFA |
| Aircraft | A20N/M-SDE2E3FGHIRWXY/LB1 |
Departure
| Time | 2026-05-07 13:26 |
|---|---|
| Airport | Hamburg Helmut Schmidt Airport (EDDH) |
Arrival
| Time | N/A |
|---|---|
| Airport | Amsterdam Airport Schiphol (EHAM) |
| Time | Latitude | Longitude | Altitude | Speed | Heading |
|---|---|---|---|---|---|
| 2026-05-07 12:48 | 53.62892 | 10.00214 | 44 ft | 0 kts | 123° |
| 2026-05-07 13:16 | 53.62893 | 10.00212 | 45 ft | 0 kts | 123° |
| 2026-05-07 13:16 | 53.62904 | 10.00181 | 44 ft | 5 kts | 123° |
| 2026-05-07 13:17 | 53.62922 | 10.00137 | 42 ft | 4 kts | 136° |
| 2026-05-07 13:17 | 53.62943 | 10.00123 | 44 ft | 0 kts | 203° |
| 2026-05-07 13:18 | 53.62942 | 10.00122 | 44 ft | 3 kts | 205° |
| 2026-05-07 13:18 | 53.62919 | 10.00102 | 45 ft | 12 kts | 208° |
| 2026-05-07 13:18 | 53.62859 | 10.00025 | 46 ft | 8 kts | 222° |
| 2026-05-07 13:19 | 53.62817 | 9.99974 | 47 ft | 0 kts | 210° |
| 2026-05-07 13:21 | 53.62805 | 9.99963 | 45 ft | 11 kts | 209° |
| 2026-05-07 13:21 | 53.62669 | 9.99830 | 47 ft | 24 kts | 219° |
| 2026-05-07 13:21 | 53.62604 | 9.99440 | 45 ft | 29 kts | 259° |
| 2026-05-07 13:21 | 53.62566 | 9.99115 | 44 ft | 28 kts | 259° |
| 2026-05-07 13:22 | 53.62541 | 9.98891 | 43 ft | 30 kts | 259° |
| 2026-05-07 13:22 | 53.62501 | 9.98533 | 42 ft | 32 kts | 259° |
| 2026-05-07 13:22 | 53.62461 | 9.98211 | 39 ft | 28 kts | 251° |
| 2026-05-07 13:22 | 53.62341 | 9.97910 | 40 ft | 39 kts | 231° |
| 2026-05-07 13:23 | 53.62170 | 9.97563 | 40 ft | 33 kts | 231° |
| 2026-05-07 13:23 | 53.62160 | 9.97455 | 40 ft | 8 kts | 340° |
| 2026-05-07 13:23 | 53.62213 | 9.97403 | 40 ft | 0 kts | 321° |
| 2026-05-07 13:24 | 53.62254 | 9.97373 | 41 ft | 16 kts | 347° |
| 2026-05-07 13:25 | 53.62354 | 9.97444 | 41 ft | 1 kts | 51° |
| 2026-05-07 13:25 | 53.62356 | 9.97449 | 41 ft | 8 kts | 50° |
| 2026-05-07 13:26 | 53.62580 | 9.97897 | 42 ft | 92 kts | 50° |
| 2026-05-07 13:26 | 53.63135 | 9.99020 | 105 ft | 153 kts | 50° |
| 2026-05-07 13:26 | 53.63859 | 10.00469 | 706 ft | 170 kts | 50° |
| 2026-05-07 13:26 | 53.64657 | 10.02058 | 1453 ft | 185 kts | 50° |
| 2026-05-07 13:27 | 53.65513 | 10.03757 | 2167 ft | 195 kts | 50° |
| 2026-05-07 13:27 | 53.66450 | 10.05492 | 2890 ft | 207 kts | 47° |
| 2026-05-07 13:27 | 53.67467 | 10.07308 | 3621 ft | 218 kts | 49° |
| 2026-05-07 13:27 | 53.68503 | 10.09251 | 4418 ft | 226 kts | 49° |
| 2026-05-07 13:28 | 53.69737 | 10.10790 | 5446 ft | 220 kts | 28° |
| 2026-05-07 13:28 | 53.71253 | 10.11357 | 5621 ft | 226 kts | 358° |
| 2026-05-07 13:28 | 53.72722 | 10.10455 | 5741 ft | 230 kts | 324° |
| 2026-05-07 13:28 | 53.73709 | 10.08291 | 5849 ft | 240 kts | 292° |
| 2026-05-07 13:29 | 53.74133 | 10.05459 | 6005 ft | 264 kts | 282° |
| 2026-05-07 13:29 | 53.74538 | 10.02357 | 5997 ft | 281 kts | 287° |
| 2026-05-07 13:29 | 53.75027 | 9.99135 | 6377 ft | 285 kts | 277° |
| 2026-05-07 13:29 | 53.74844 | 9.95835 | 7372 ft | 282 kts | 252° |
| 2026-05-07 13:30 | 53.74103 | 9.92730 | 8312 ft | 287 kts | 246° |
| 2026-05-07 13:30 | 53.73330 | 9.89682 | 9364 ft | 287 kts | 246° |
| 2026-05-07 13:30 | 53.72524 | 9.86519 | 10331 ft | 291 kts | 246° |
| 2026-05-07 13:30 | 53.71699 | 9.83281 | 10799 ft | 311 kts | 246° |
| 2026-05-07 13:31 | 53.70812 | 9.79796 | 11127 ft | 333 kts | 246° |
| 2026-05-07 13:31 | 53.69884 | 9.76143 | 11806 ft | 340 kts | 247° |
| 2026-05-07 13:31 | 53.68958 | 9.72504 | 12668 ft | 343 kts | 247° |
| 2026-05-07 13:31 | 53.68012 | 9.68787 | 13529 ft | 346 kts | 247° |
| 2026-05-07 13:32 | 53.67054 | 9.65032 | 14302 ft | 350 kts | 247° |
| 2026-05-07 13:32 | 53.66084 | 9.61233 | 15019 ft | 354 kts | 247° |
| 2026-05-07 13:32 | 53.64985 | 9.57511 | 15816 ft | 356 kts | 240° |
| 2026-05-07 13:32 | 53.63593 | 9.54044 | 16571 ft | 359 kts | 234° |
| 2026-05-07 13:33 | 53.62112 | 9.50623 | 17266 ft | 363 kts | 234° |
| 2026-05-07 13:33 | 53.60618 | 9.47151 | 17944 ft | 368 kts | 234° |
| 2026-05-07 13:33 | 53.59119 | 9.43664 | 18697 ft | 368 kts | 234° |
| 2026-05-07 13:33 | 53.57617 | 9.40170 | 19414 ft | 369 kts | 234° |
| 2026-05-07 13:34 | 53.56118 | 9.36684 | 19932 ft | 374 kts | 234° |
| 2026-05-07 13:34 | 53.53024 | 9.29509 | 21156 ft | 381 kts | 234° |
| 2026-05-07 13:34 | 53.51466 | 9.25904 | 21856 ft | 382 kts | 234° |
| 2026-05-07 13:35 | 53.49891 | 9.22265 | 22369 ft | 387 kts | 234° |
| 2026-05-07 13:35 | 53.48292 | 9.18576 | 22936 ft | 390 kts | 234° |
| 2026-05-07 13:35 | 53.46687 | 9.14880 | 23594 ft | 392 kts | 234° |
| 2026-05-07 13:35 | 53.45092 | 9.11212 | 24038 ft | 396 kts | 234° |
| 2026-05-07 13:36 | 53.43459 | 9.07463 | 24489 ft | 400 kts | 234° |
| 2026-05-07 13:36 | 53.41806 | 9.03674 | 24998 ft | 402 kts | 234° |
| 2026-05-07 13:36 | 53.40149 | 8.99879 | 25513 ft | 403 kts | 234° |
| 2026-05-07 13:36 | 53.38473 | 8.96048 | 25867 ft | 409 kts | 234° |
| 2026-05-07 13:37 | 53.36803 | 8.92238 | 26318 ft | 411 kts | 234° |
| 2026-05-07 13:37 | 53.35228 | 8.88246 | 26805 ft | 412 kts | 240° |
| 2026-05-07 13:37 | 53.33936 | 8.83941 | 27197 ft | 416 kts | 247° |
| 2026-05-07 13:37 | 53.32902 | 8.79383 | 27495 ft | 422 kts | 250° |
| 2026-05-07 13:38 | 53.31899 | 8.74777 | 27984 ft | 422 kts | 250° |
| 2026-05-07 13:38 | 53.30886 | 8.70160 | 28409 ft | 424 kts | 250° |
| 2026-05-07 13:38 | 53.29856 | 8.65500 | 28741 ft | 428 kts | 249° |
| 2026-05-07 13:38 | 53.28822 | 8.60802 | 29096 ft | 430 kts | 250° |
| 2026-05-07 13:39 | 53.27795 | 8.56110 | 29566 ft | 430 kts | 250° |
| 2026-05-07 13:39 | 53.26773 | 8.51445 | 29858 ft | 434 kts | 250° |
| 2026-05-07 13:39 | 53.25754 | 8.46680 | 29985 ft | 437 kts | 251° |
| 2026-05-07 13:40 | 53.23956 | 8.37006 | 29989 ft | 435 kts | 253° |
| 2026-05-07 13:40 | 53.22168 | 8.27296 | 29988 ft | 437 kts | 252° |
| 2026-05-07 13:41 | 53.20347 | 8.17653 | 29986 ft | 435 kts | 252° |
| 2026-05-07 13:41 | 53.18521 | 8.08071 | 29984 ft | 433 kts | 252° |
| 2026-05-07 13:42 | 53.16711 | 7.98465 | 29988 ft | 435 kts | 252° |
| 2026-05-07 13:42 | 53.14899 | 7.88889 | 29983 ft | 433 kts | 252° |
| 2026-05-07 13:43 | 53.13068 | 7.79271 | 29983 ft | 436 kts | 252° |
| 2026-05-07 13:43 | 53.11231 | 7.69678 | 29978 ft | 434 kts | 252° |
| 2026-05-07 13:44 | 53.09382 | 7.60083 | 29973 ft | 442 kts | 252° |
| 2026-05-07 13:44 | 53.07501 | 7.50384 | 29945 ft | 440 kts | 252° |
| 2026-05-07 13:44 | 53.06558 | 7.45539 | 29702 ft | 440 kts | 252° |
| 2026-05-07 13:45 | 53.05618 | 7.40721 | 29416 ft | 436 kts | 252° |
| 2026-05-07 13:45 | 53.04685 | 7.35951 | 29134 ft | 434 kts | 252° |
| 2026-05-07 13:45 | 53.03749 | 7.31179 | 28858 ft | 434 kts | 251° |
| 2026-05-07 13:45 | 53.02814 | 7.26422 | 28565 ft | 430 kts | 251° |
| 2026-05-07 13:46 | 53.01888 | 7.21721 | 28287 ft | 424 kts | 251° |
| 2026-05-07 13:46 | 53.00965 | 7.17089 | 28011 ft | 422 kts | 251° |
| 2026-05-07 13:46 | 53.00039 | 7.12528 | 27737 ft | 422 kts | 251° |
| 2026-05-07 13:46 | 52.99096 | 7.07917 | 27388 ft | 421 kts | 251° |
| 2026-05-07 13:47 | 52.98165 | 7.03366 | 26544 ft | 420 kts | 251° |
| 2026-05-07 13:47 | 52.97219 | 6.98751 | 25206 ft | 425 kts | 251° |
| 2026-05-07 13:47 | 52.96257 | 6.94061 | 23757 ft | 433 kts | 251° |
| 2026-05-07 13:47 | 52.95275 | 6.89279 | 21871 ft | 442 kts | 251° |
| 2026-05-07 13:48 | 52.94273 | 6.84414 | 20495 ft | 443 kts | 251° |
| 2026-05-07 13:48 | 52.93308 | 6.79739 | 20355 ft | 413 kts | 251° |
| 2026-05-07 13:48 | 52.92409 | 6.75391 | 20225 ft | 386 kts | 251° |
| 2026-05-07 13:48 | 52.91555 | 6.71266 | 19595 ft | 375 kts | 251° |
| 2026-05-07 13:49 | 52.90715 | 6.67221 | 19202 ft | 365 kts | 251° |
| 2026-05-07 13:49 | 52.89876 | 6.63190 | 19095 ft | 375 kts | 251° |
| 2026-05-07 13:49 | 52.89027 | 6.59115 | 18986 ft | 372 kts | 251° |
| 2026-05-07 13:49 | 52.88204 | 6.55176 | 18868 ft | 358 kts | 251° |
| 2026-05-07 13:50 | 52.87411 | 6.51390 | 18748 ft | 339 kts | 251° |
| 2026-05-07 13:50 | 52.86657 | 6.47797 | 18636 ft | 321 kts | 251° |
| 2026-05-07 13:50 | 52.85950 | 6.44431 | 18523 ft | 304 kts | 251° |
| 2026-05-07 13:50 | 52.85270 | 6.41203 | 18311 ft | 292 kts | 251° |
| 2026-05-07 13:51 | 52.84618 | 6.38107 | 18140 ft | 277 kts | 251° |
| 2026-05-07 13:51 | 52.83998 | 6.35181 | 17833 ft | 269 kts | 249° |
| 2026-05-07 13:51 | 52.83196 | 6.32377 | 17546 ft | 272 kts | 239° |
| 2026-05-07 13:51 | 52.82129 | 6.29786 | 17273 ft | 272 kts | 235° |
| 2026-05-07 13:52 | 52.81047 | 6.27240 | 17079 ft | 268 kts | 236° |
| 2026-05-07 13:52 | 52.79982 | 6.24708 | 17065 ft | 268 kts | 236° |
| 2026-05-07 13:52 | 52.78912 | 6.22156 | 17062 ft | 271 kts | 236° |
| 2026-05-07 13:52 | 52.77840 | 6.19601 | 17061 ft | 270 kts | 236° |
| 2026-05-07 13:53 | 52.76765 | 6.17047 | 17060 ft | 271 kts | 236° |
| 2026-05-07 13:53 | 52.75689 | 6.14493 | 17058 ft | 269 kts | 236° |
| 2026-05-07 13:53 | 52.74617 | 6.11955 | 17057 ft | 269 kts | 236° |
| 2026-05-07 13:53 | 52.73563 | 6.09460 | 17059 ft | 269 kts | 236° |
| 2026-05-07 13:54 | 52.72485 | 6.06910 | 17059 ft | 271 kts | 236° |
| 2026-05-07 13:54 | 52.71408 | 6.04367 | 17058 ft | 270 kts | 235° |
| 2026-05-07 13:54 | 52.70328 | 6.01818 | 17066 ft | 270 kts | 236° |
| 2026-05-07 13:54 | 52.69255 | 5.99288 | 17066 ft | 269 kts | 236° |
| 2026-05-07 13:55 | 52.68180 | 5.96757 | 17063 ft | 268 kts | 236° |
| 2026-05-07 13:55 | 52.67111 | 5.94243 | 17065 ft | 269 kts | 235° |
| 2026-05-07 13:55 | 52.66031 | 5.91703 | 17049 ft | 270 kts | 235° |
| 2026-05-07 13:55 | 52.64953 | 5.89172 | 16822 ft | 269 kts | 235° |
| 2026-05-07 13:56 | 52.63897 | 5.86698 | 16534 ft | 266 kts | 235° |
| 2026-05-07 13:56 | 52.62836 | 5.84210 | 16151 ft | 266 kts | 235° |
| 2026-05-07 13:56 | 52.61777 | 5.81730 | 15823 ft | 264 kts | 235° |
| 2026-05-07 13:56 | 52.60728 | 5.79276 | 15480 ft | 262 kts | 235° |
| 2026-05-07 13:57 | 52.59673 | 5.76812 | 15152 ft | 261 kts | 235° |
| 2026-05-07 13:57 | 52.58628 | 5.74370 | 14764 ft | 262 kts | 235° |
| 2026-05-07 13:57 | 52.57582 | 5.71930 | 14451 ft | 258 kts | 235° |
| 2026-05-07 13:57 | 52.56550 | 5.69524 | 14120 ft | 258 kts | 235° |
| 2026-05-07 13:58 | 52.55520 | 5.67130 | 13848 ft | 255 kts | 235° |
| 2026-05-07 13:58 | 52.54496 | 5.64748 | 13472 ft | 254 kts | 235° |
| 2026-05-07 13:58 | 52.53732 | 5.62972 | 13193 ft | 254 kts | 235° |